Time;durP1;ratioP1;P1;durP2;ratioP2;P2;SDS_P1;SDS_P2;PMS_P1;PMS_P2;Temp;Humidity;BMP_temperature;BMP_pressure;BME280_temperature;BME280_humidity;BME280_pressure;Samples;Min_cycle;Max_cycle;Signal;HPM_P1;HPM_P2
2023/03/12 00:01:41;;;;;;;9.57;2.63;;;;;;;13.98;43.76;99807.00;5070400;28;20515;-81
2023/03/12 00:04:31;;;;;;;7.38;1.67;;;;;;;14.03;42.45;99807.50;5070359;28;20040;-81
2023/03/12 00:07:25;;;;;;;5.35;1.52;;;;;;;14.01;41.30;99804.34;5077345;28;20503;-80
2023/03/12 00:10:19;;;;;;;11.53;2.77;;;;;;;13.96;42.04;99809.31;5070736;28;20047;-81
2023/03/12 00:13:14;;;;;;;8.80;2.87;;;;;;;13.92;41.96;99811.97;5063069;28;20428;-81
2023/03/12 00:16:09;;;;;;;7.50;1.97;;;;;;;13.86;41.79;99820.81;5070289;28;20035;-81
2023/03/12 00:19:04;;;;;;;4.43;0.90;;;;;;;13.85;40.88;99821.97;5066259;28;20293;-81
2023/03/12 00:21:58;;;;;;;4.60;1.67;;;;;;;13.77;40.90;99831.16;5069631;28;20040;-81
2023/03/12 00:24:53;;;;;;;5.97;1.80;;;;;;;13.71;40.62;99833.41;5068368;28;20036;-81
2023/03/12 00:27:47;;;;;;;8.95;2.05;;;;;;;13.68;40.62;99845.03;5069209;28;20073;-81
2023/03/12 00:30:39;;;;;;;6.97;1.98;;;;;;;13.61;40.85;99845.66;5071460;28;20048;-80
2023/03/12 00:33:34;;;;;;;5.00;2.07;;;;;;;13.71;41.12;99856.00;5075210;28;20043;-81
2023/03/12 00:36:28;;;;;;;4.68;1.75;;;;;;;13.60;41.14;99859.69;5067529;28;20530;-80
2023/03/12 00:39:23;;;;;;;4.18;2.20;;;;;;;13.60;41.30;99863.22;5069093;28;20431;-81
2023/03/12 00:42:18;;;;;;;7.18;2.50;;;;;;;13.46;41.31;99860.13;5060671;28;20515;-81
2023/03/12 00:45:11;;;;;;;5.60;1.80;;;;;;;13.45;41.55;99852.31;5073590;28;20054;-81
2023/03/12 00:48:05;;;;;;;3.58;1.65;;;;;;;13.44;41.91;99862.44;5075073;28;20047;-81
2023/03/12 00:50:57;;;;;;;5.93;1.80;;;;;;;13.33;42.27;99861.41;5075708;28;20150;-81
2023/03/12 00:53:52;;;;;;;2.40;1.40;;;;;;;13.30;42.22;99867.56;5067507;28;20047;-81
2023/03/12 00:56:47;;;;;;;5.07;2.17;;;;;;;13.29;42.54;99866.00;5078082;28;20032;-81
2023/03/12 00:59:41;;;;;;;11.73;2.30;;;;;;;13.20;43.06;99876.31;5070666;28;20055;-80
2023/03/12 01:02:36;;;;;;;5.85;2.33;;;;;;;13.15;43.47;99873.84;5063560;28;20043;-81
2023/03/12 01:05:30;;;;;;;4.60;2.08;;;;;;;13.15;43.51;99877.38;5073477;28;20514;-81
2023/03/12 01:08:25;;;;;;;7.10;2.28;;;;;;;13.07;43.44;99886.47;5067302;28;20052;-78
2023/03/12 01:11:23;;;;;;;7.18;2.13;;;;;;;13.19;43.33;99877.44;5063787;28;20039;-79
2023/03/12 01:14:17;;;;;;;5.05;2.20;;;;;;;13.15;43.67;99887.50;5068917;28;20221;-80
2023/03/12 01:17:09;;;;;;;10.15;3.60;;;;;;;13.07;43.98;99886.47;5067462;28;20048;-79
2023/03/12 01:20:01;;;;;;;5.33;2.10;;;;;;;13.06;43.92;99903.19;5069219;28;20036;-80
2023/03/12 01:22:53;;;;;;;7.53;2.28;;;;;;;13.12;44.00;99893.63;5073206;28;20336;-79
2023/03/12 01:25:48;;;;;;;3.87;2.00;;;;;;;13.01;44.72;99903.44;5068991;28;20044;-80
2023/03/12 01:28:42;;;;;;;6.50;2.20;;;;;;;13.06;44.80;99906.72;5083897;28;20043;-80
2023/03/12 01:31:37;;;;;;;8.68;3.25;;;;;;;13.06;45.23;99923.09;5065598;28;20036;-79
2023/03/12 01:34:32;;;;;;;5.30;2.00;;;;;;;12.99;45.24;99917.47;5077486;28;20871;-79
2023/03/12 01:37:26;;;;;;;8.43;2.60;;;;;;;12.93;45.13;99923.53;5075083;28;20044;-80
2023/03/12 01:40:28;;;;;;;6.63;2.27;;;;;;;13.00;45.36;99929.97;5067333;28;20277;-80
2023/03/12 01:43:30;;;;;;;5.45;1.98;;;;;;;12.97;45.35;99924.41;5066655;28;20274;-79
2023/03/12 01:46:35;;;;;;;5.10;2.22;;;;;;;12.93;45.60;99934.44;5065393;28;20036;-80
2023/03/12 01:49:34;;;;;;;3.95;2.28;;;;;;;12.83;45.57;99933.81;5068907;28;20048;-79
2023/03/12 01:52:32;;;;;;;7.85;2.40;;;;;;;12.88;45.50;99937.44;5081211;28;20047;-80
2023/03/12 01:55:25;;;;;;;;;;;;;;;12.85;45.54;99949.81;5067491;28;20133;-80
2023/03/12 01:58:17;;;;;;;;;;;;;;;12.84;45.37;99954.50;5082398;28;19913;-81
2023/03/12 02:01:08;;;;;;;;;;;;;;;12.83;45.60;99949.38;5064080;28;19912;-80
2023/03/12 02:04:00;;;;;;;;;;;;;;;12.74;45.88;99955.00;5073765;28;19916;-80
2023/03/12 02:06:54;;;;;;;;;;;;;;;12.69;46.06;99955.25;5068294;28;19912;-80
2023/03/12 02:09:46;;;;;;;;;;;;;;;12.61;46.42;99953.47;5067475;28;19920;-80
2023/03/12 02:12:38;;;;;;;;;;;;;;;12.61;46.69;99960.84;5083782;28;19920;-80
2023/03/12 02:15:30;;;;;;;;;;;;;;;12.69;46.49;99977.09;5075646;28;19912;-80
2023/03/12 02:18:22;;;;;;;;;;;;;;;12.62;46.94;99974.16;5060765;28;19913;-80
2023/03/12 02:21:19;;;;;;;;;;;;;;;12.60;46.68;99981.88;5080291;28;19912;-79
2023/03/12 02:24:18;;;;;;;;;;;;;;;12.45;46.99;99990.78;5061833;28;19912;-79
2023/03/12 02:27:11;;;;;;;;;;;;;;;12.49;47.01;99994.44;5078911;28;19912;-79
2023/03/12 02:30:01;;;;;;;;;;;;;;;12.39;47.42;100000.38;5074977;28;19916;-80
2023/03/12 02:32:55;;;;;;;;;;;;;;;12.53;46.89;100000.78;5078468;28;19916;-80
2023/03/12 02:35:47;;;;;;;;;;;;;;;12.51;46.74;100004.97;5066783;28;19920;-80
2023/03/12 02:38:40;;;;;;;;;;;;;;;12.64;46.50;99996.41;5077313;28;20403;-79
2023/03/12 02:41:32;;;;;;;;;;;;;;;12.56;46.52;100004.72;5060021;28;19913;-79
2023/03/12 02:44:26;;;;;;;;;;;;;;;12.50;46.88;100008.81;5062260;28;19913;-79
2023/03/12 02:47:18;;;;;;;;;;;;;;;12.46;47.21;100008.72;5066537;28;19912;-78
2023/03/12 02:50:10;;;;;;;;;;;;;;;12.48;47.34;100017.38;5078669;28;19916;-79
2023/03/12 02:53:02;;;;;;;;;;;;;;;12.44;47.62;100008.31;5068088;28;19913;-80
2023/03/12 02:55:53;;;;;;;;;;;;;;;12.30;48.33;100010.56;5070708;28;19913;-81
2023/03/12 02:58:45;;;;;;;;;;;;;;;12.31;48.26;100017.63;5066141;28;19999;-80
2023/03/12 03:01:37;;;;;;;;;;;;;;;12.37;48.25;100022.50;5083627;28;19920;-80
2023/03/12 03:04:30;;;;;;;;;;;;;;;12.33;48.37;100031.72;5086888;28;19912;-81
2023/03/12 03:07:22;;;;;;;;;;;;;;;12.33;48.50;100027.06;5070605;28;19921;-80
2023/03/12 03:10:14;;;;;;;;;;;;;;;12.33;48.23;100035.25;5076373;28;19917;-80
2023/03/12 03:13:06;;;;;;;;;;;;;;;12.25;48.45;100041.59;5073364;28;19916;-80
2023/03/12 03:15:58;;;;;;;;;;;;;;;12.22;48.46;100055.13;5067040;28;19912;-80
2023/03/12 03:18:51;;;;;;;;;;;;;;;12.19;48.55;100064.00;5065278;28;19916;-80
2023/03/12 03:21:43;;;;;;;;;;;;;;;12.23;48.47;100067.63;5080918;28;19912;-80
2023/03/12 03:24:35;;;;;;;;;;;;;;;12.27;48.83;100072.06;5066597;28;19913;-80
2023/03/12 03:27:24;;;;;;;;;;;;;;;12.18;49.28;100070.59;5065370;28;19917;-80
2023/03/12 03:30:16;;;;;;;;;;;;;;;12.22;49.07;100079.66;5072745;28;19921;-80
2023/03/12 03:33:08;;;;;;;;;;;;;;;12.21;47.94;100076.13;5073858;28;19913;-80
2023/03/12 03:36:00;;;;;;;;;;;;;;;12.16;47.68;100078.28;5069332;28;19913;-80
2023/03/12 03:38:53;;;;;;;;;;;;;;;12.07;46.92;100072.16;5085567;28;19913;-80
2023/03/12 03:41:45;;;;;;;;;;;;;;;12.08;47.09;100092.84;5083674;28;19912;-80
2023/03/12 03:44:38;;;;;;;;;;;;;;;12.09;47.04;100094.44;5087780;28;19913;-80
2023/03/12 03:47:30;;;;;;;;;;;;;;;12.14;46.35;100105.13;5085481;28;19912;-80
2023/03/12 03:50:19;;;;;;;;;;;;;;;12.12;46.68;100113.63;5087241;28;19916;-80
2023/03/12 03:53:12;;;;;;;;;;;;;;;12.15;46.37;100115.66;5085440;28;19912;-80
2023/03/12 03:56:10;;;;;;;;;;;;;;;12.02;45.94;100116.78;5084504;28;19912;-80
2023/03/12 03:59:03;;;;;;;;;;;;;;;12.07;45.57;100127.47;5088426;28;19912;-80
2023/03/12 04:01:52;;;;;;;;;;;;;;;12.14;45.75;100135.09;5085134;28;19912;-80
2023/03/12 04:04:44;;;;;;;;;;;;;;;12.16;46.22;100143.72;5083916;28;19916;-80
2023/03/12 04:07:37;;;;;;;;;;;;;;;12.10;45.81;100136.88;5085137;28;20311;-80
2023/03/12 04:10:29;;;;;;;;;;;;;;;12.10;46.14;100131.44;5082521;28;19917;-80
2023/03/12 04:13:21;;;;;;;;;;;;;;;12.17;45.79;100137.13;5075409;28;19912;-80
2023/03/12 04:16:10;;;;;;;;;;;;;;;12.13;45.93;100152.56;5085481;28;19912;-80
2023/03/12 04:19:02;;;;;;;;;;;;;;;12.10;46.23;100158.69;5083310;28;19912;-79
2023/03/12 04:21:55;;;;;;;;;;;;;;;12.14;46.02;100160.38;5083760;28;19912;-80
2023/03/12 04:24:47;;;;;;;;;;;;;;;12.04;45.80;100166.28;5086104;28;19916;-80
2023/03/12 04:27:39;;;;;;;;;;;;;;;12.08;45.76;100167.22;5084613;28;20363;-80
2023/03/12 04:30:31;;;;;;;;;;;;;;;12.04;45.66;100168.25;5085298;28;19916;-80
2023/03/12 04:33:23;;;;;;;;;;;;;;;12.05;45.74;100181.50;5083518;28;19912;-79
2023/03/12 04:36:15;;;;;;;;;;;;;;;12.01;45.69;100188.78;5068353;28;19913;-79
2023/03/12 04:39:08;;;;;;;;;;;;;;;11.88;45.78;100185.22;5066632;28;19913;-80
2023/03/12 04:42:00;;;;;;;;;;;;;;;11.95;45.64;100187.38;5077466;28;19912;-80
2023/03/12 04:44:51;;;;;;;;;;;;;;;11.89;45.53;100186.81;5067387;28;19913;-79
2023/03/12 04:47:43;;;;;;;;;;;;;;;11.80;46.16;100196.19;5081929;28;19916;-79
2023/03/12 04:50:36;;;;;;;;;;;;;;;11.90;45.61;100204.75;5088599;28;19920;-80
2023/03/12 04:53:28;;;;;;;;;;;;;;;11.83;45.86;100209.16;5080902;28;19912;-80
2023/03/12 04:56:20;;;;;;;;;;;;;;;11.94;45.59;100215.75;5072088;28;19913;-79
2023/03/12 04:59:12;;;;;;;;;;;;;;;11.91;45.63;100214.53;5086652;28;19912;-79
2023/03/12 05:02:04;;;;;;;;;;;;;;;11.84;46.07;100225.16;5084592;28;19913;-79
2023/03/12 05:04:56;;;;;;;;;;;;;;;11.79;45.96;100236.25;5083066;28;19916;-80
2023/03/12 05:07:49;;;;;;;;;;;;;;;11.84;45.92;100244.22;5086446;28;19912;-80
2023/03/12 05:10:39;;;;;;;;;;;;;;;11.84;45.96;100244.22;5083708;28;19916;-79
2023/03/12 05:13:32;;;;;;;;;;;;;;;11.76;46.39;100253.28;5083476;28;19912;-78
2023/03/12 05:16:24;;;;;;;;;;;;;;;11.84;46.30;100252.41;5076670;28;19912;-80
2023/03/12 05:19:17;;;;;;;;;;;;;;;11.80;46.60;100262.38;5076353;28;19916;-79
2023/03/12 05:22:09;;;;;;;;;;;;;;;11.78;46.22;100267.38;5068437;28;19912;-79
2023/03/12 05:25:01;;;;;;;;;;;;;;;11.80;46.21;100269.75;5083168;28;19912;-79
2023/03/12 05:27:53;;;;;;;;;;;;;;;11.83;46.35;100272.63;5072358;28;19913;-79
2023/03/12 05:30:46;;;;;;;;;;;;;;;11.82;46.55;100281.13;5066248;28;19925;-78
2023/03/12 05:33:36;;;;;;;;;;;;;;;11.87;45.93;100273.53;5078454;28;19912;-79
2023/03/12 05:36:28;;;;;;;;;;;;;;;11.75;46.50;100270.75;5080754;28;19916;-80
2023/03/12 05:39:20;;;;;;;;;;;;;;;11.73;46.81;100261.34;5072316;28;19913;-79
2023/03/12 05:42:12;;;;;;;;;;;;;;;11.78;46.57;100272.03;5066247;28;19920;-79
2023/03/12 05:45:05;;;;;;;;;;;;;;;11.71;46.84;100275.25;5071126;28;19921;-79
2023/03/12 05:47:58;;;;;;;;;;;;;;;11.68;46.67;100284.09;5069989;28;19913;-79
2023/03/12 05:50:50;;;;;;;;;;;;;;;11.70;46.96;100292.72;5064148;28;19917;-79
2023/03/12 05:53:42;;;;;;;;;;;;;;;11.75;46.66;100289.81;5082168;28;19912;-79
2023/03/12 05:56:32;;;;;;;;;;;;;;;11.76;46.66;100301.53;5081944;28;19912;-79
2023/03/12 05:59:24;;;;;;;;;;;;;;;11.74;47.15;100306.50;5077139;28;19912;-79
2023/03/12 06:02:16;;;;;;;;;;;;;;;11.81;46.88;100309.50;5073464;28;19920;-79
2023/03/12 06:05:08;;;;;;;;;;;;;;;11.76;46.87;100313.22;5062649;28;19924;-80
2023/03/12 06:08:00;;;;;;;;;;;;;;;11.72;47.17;100323.16;5082460;28;19912;-79
2023/03/12 06:10:52;;;;;;;;;;;;;;;11.84;47.08;100319.72;5080255;28;20291;-80
2023/03/12 06:13:44;;;;;;;;;;;;;;;11.87;47.24;100330.75;5068132;28;19920;-80
2023/03/12 06:16:36;;;;;;;;;;;;;;;11.88;47.57;100332.34;5064998;28;19916;-79
2023/03/12 06:19:28;;;;;;;;;;;;;;;11.86;47.09;100342.78;5067748;28;19913;-80
2023/03/12 06:22:20;;;;;;;;;;;;;;;11.86;47.49;100340.06;5067354;28;19913;-80
2023/03/12 06:25:12;;;;;;;;;;;;;;;11.98;46.99;100337.41;5070820;28;19912;-80
2023/03/12 06:28:04;;;;;;;;;;;;;;;12.08;47.89;100351.75;5078250;28;20643;-80
2023/03/12 06:30:57;;;;;;;;;;;;;;;12.09;47.00;100345.16;5081769;28;19921;-80
2023/03/12 06:33:49;;;;;;;;;;;;;;;12.16;47.36;100350.84;5065451;28;19912;-80
2023/03/12 06:36:41;;;;;;;;;;;;;;;12.12;47.21;100358.13;5062103;28;19920;-80
2023/03/12 06:39:33;;;;;;;;;;;;;;;12.05;47.10;100368.75;5064744;28;20379;-80
2023/03/12 06:42:25;;;;;;;;;;;;;;;12.18;47.52;100379.41;5074547;28;19920;-80
2023/03/12 06:45:18;;;;;;;;;;;;;;;12.33;48.45;100372.53;5073299;28;19943;-80
2023/03/12 06:48:10;;;;;;;;;;;;;;;12.54;46.61;100367.81;5064334;28;20391;-80
2023/03/12 06:51:02;;;;;;;;;;;;;;;12.53;46.48;100368.97;5061188;28;20356;-80
2023/03/12 06:53:53;;;;;;;;;;;;;;;12.52;46.85;100377.47;5064255;28;19913;-81
2023/03/12 06:56:45;;;;;;;;;;;;;;;12.56;46.13;100387.38;5077369;28;19912;-80
2023/03/12 06:59:37;;;;;;;;;;;;;;;12.63;46.20;100392.28;5058736;28;20371;-81
2023/03/12 07:02:29;;;;;;;;;;;;;;;12.65;46.26;100396.25;5075887;28;19912;-80
2023/03/12 07:05:21;;;;;;;;;;;;;;;12.63;45.41;100395.81;5068975;28;19924;-79
2023/03/12 07:08:13;;;;;;;;;;;;;;;12.78;45.84;100394.38;5068842;28;19917;-80
2023/03/12 07:11:05;;;;;;;;;;;;;;;12.72;45.58;100385.59;5063486;28;19913;-80
2023/03/12 07:13:57;;;;;;;;;;;;;;;12.75;45.40;100384.09;5071716;28;19921;-80
2023/03/12 07:16:49;;;;;;;;;;;;;;;12.82;45.15;100387.09;5067430;28;19912;-80
2023/03/12 07:19:41;;;;;;;;;;;;;;;12.75;45.65;100404.00;5076704;28;19913;-81
2023/03/12 07:22:33;;;;;;;;;;;;;;;12.83;45.24;100411.31;5074986;28;19920;-81
2023/03/12 07:25:25;;;;;;;;;;;;;;;12.86;45.14;100412.56;5072652;28;19920;-81
2023/03/12 07:28:17;;;;;;;;;;;;;;;12.87;45.05;100416.91;5066726;28;19921;-81
2023/03/12 07:31:09;;;;;;;;;;;;;;;12.96;44.74;100427.72;5073509;28;19912;-81
2023/03/12 07:34:01;;;;;;;;;;;;;;;12.99;45.09;100432.50;5062958;28;19912;-81
2023/03/12 07:36:51;;;;;;;;;;;;;;;12.96;45.45;100439.44;5073391;28;19912;-81
2023/03/12 07:39:42;;;;;;;;;;;;;;;13.14;44.11;100423.69;5063718;28;19913;-81
2023/03/12 07:42:34;;;;;;;;;;;;;;;13.11;44.16;100440.69;5060339;28;19916;-80
2023/03/12 07:45:26;;;;;;;;;;;;;;;13.19;43.46;100439.84;5064393;28;20635;-79
2023/03/12 07:48:18;;;;;;;;;;;;;;;13.18;43.07;100447.25;5082549;28;20299;-80
2023/03/12 07:51:10;;;;;;;;;;;;;;;13.30;43.91;100457.41;5080844;28;20386;-78
2023/03/12 07:54:02;;;;;;;;;;;;;;;13.37;42.80;100471.28;5070171;28;19912;-80
2023/03/12 07:56:54;;;;;;;;;;;;;;;13.33;42.54;100456.72;5059241;28;19920;-78
2023/03/12 07:59:45;;;;;;;;;;;;;;;13.49;42.10;100454.91;5065074;28;19913;-80
2023/03/12 08:02:37;;;;;;;;;;;;;;;13.59;41.10;100459.91;5071977;28;19920;-78
2023/03/12 08:05:29;;;;;;;;;;;;;;;13.63;42.03;100463.56;5074385;28;19913;-78
2023/03/12 08:08:19;;;;;;;;;;;;;;;13.78;41.74;100469.47;5071114;28;19924;-80
2023/03/12 08:11:08;;;;;;;;;;;;;;;13.59;41.84;100461.84;5069359;28;19920;-79
2023/03/12 08:14:00;;;;;;;;;;;;;;;13.29;42.82;100477.66;5080376;28;19912;-79
2023/03/12 08:16:52;;;;;;;;;;;;;;;13.06;42.81;100465.50;5090810;28;19916;-80
2023/03/12 08:19:44;;;;;;;;;;;;;;;13.26;42.88;100475.56;5088606;28;19912;-80
2023/03/12 08:22:36;;;;;;;;;;;;;;;13.33;42.38;100477.75;5086460;28;20359;-79
2023/03/12 08:25:28;;;;;;;;;;;;;;;13.19;42.44;100480.81;5090230;28;19912;-79
2023/03/12 08:28:16;;;;;;;;;;;;;;;13.23;41.81;100481.72;5085449;28;19916;-79
2023/03/12 08:31:08;;;;;;;;;;;;;;;12.99;42.17;100481.63;5085240;28;19917;-79
2023/03/12 08:34:00;;;;;;;;;;;;;;;13.11;42.56;100495.31;5081993;28;20533;-79
2023/03/12 08:36:52;;;;;;;;;;;;;;;13.07;42.28;100488.94;5080556;28;19912;-79
2023/03/12 08:39:44;;;;;;;;;;;;;;;13.16;42.58;100501.38;5083646;28;19916;-80
2023/03/12 08:42:36;;;;;;;;;;;;;;;13.24;42.37;100505.16;5083116;28;19912;-79
2023/03/12 08:45:28;;;;;;;;;;;;;;;13.43;40.90;100510.91;5072415;28;19913;-79
2023/03/12 08:48:20;;;;;;;;;;;;;;;13.59;41.01;100514.56;5086654;28;19917;-79
2023/03/12 08:51:12;;;;;;;;;;;;;;;13.63;41.06;100518.19;5076831;28;19912;-79
2023/03/12 08:54:04;;;;;;;;;;;;;;;13.69;40.26;100514.13;5071908;28;19913;-80
2023/03/12 08:56:56;;;;;;;;;;;;;;;13.76;39.75;100521.75;5072454;28;19912;-79
2023/03/12 08:59:48;;;;;;;;;;;;;;;13.97;39.91;100529.81;5068724;28;19920;-79
2023/03/12 09:02:44;;;;;;;;;;;;;;;13.92;39.57;100527.31;5065939;28;19916;-79
2023/03/12 09:05:36;;;;;;;;;;;;;;;13.97;39.49;100518.88;5069492;28;19912;-79
2023/03/12 09:08:25;;;;;;;;;;;;;;;13.96;39.15;100509.91;5067502;28;19921;-79
2023/03/12 09:11:17;;;;;;;;;;;;;;;13.96;39.42;100522.78;5074548;28;19913;-80
2023/03/12 09:14:09;;;;;;;;;;;;;;;13.90;38.17;100524.13;5077160;28;20303;-79
2023/03/12 09:17:01;;;;;;;;;;;;;;;14.09;39.38;100521.63;5070216;28;19912;-79
2023/03/12 09:19:53;;;;;;;;;;;;;;;13.97;39.18;100527.09;5075031;28;19913;-79
2023/03/12 09:22:43;;;;;;;;;;;;;;;14.04;38.46;100535.53;5069397;28;19913;-79
2023/03/12 09:25:32;;;;;;;;;;;;;;;13.93;38.83;100534.38;5069991;28;19917;-79
2023/03/12 09:28:23;;;;;;;;;;;;;;;14.14;39.17;100546.78;5073421;28;19916;-79
2023/03/12 09:31:15;;;;;;;;;;;;;;;14.29;38.46;100552.69;5070457;28;19912;-80
2023/03/12 09:34:07;;;;;;;;;;;;;;;14.56;37.07;100568.44;5074135;28;20371;-79
2023/03/12 09:36:59;;;;;;;;;;;;;;;14.83;38.89;100567.66;5070574;28;19913;-79
2023/03/12 09:39:49;;;;;;;;;;;;;;;14.54;36.47;100573.44;5071124;28;19912;-79
2023/03/12 09:42:50;;;;;;;;;;;;;;;14.66;36.34;100572.63;5073960;28;19912;-79
2023/03/12 09:45:44;;;;;;;;;;;;;;;14.48;35.74;100572.06;5074246;28;19913;-79
2023/03/12 09:48:38;;;;;;;;;;;;;;;14.54;37.13;100568.78;5072210;28;19917;-80
2023/03/12 09:51:39;;;;;;;;;;;;;;;14.28;36.90;100573.78;5074355;28;19912;-79
2023/03/12 09:54:39;;;;;;;;;;;;;;;14.44;35.30;100582.13;5068026;28;19912;-80
2023/03/12 09:57:29;;;;;;;;;;;;;;;14.50;35.03;100578.81;5068988;28;19912;-80
2023/03/12 10:00:17;;;;;;;;;;;;;;;14.73;34.80;100581.06;5070671;28;19917;-80
2023/03/12 10:03:27;;;;;;;;;;;;;;;15.05;34.63;100584.69;5069167;28;19920;-80
2023/03/12 10:06:19;;;;;;;;;;;;;;;14.77;34.78;100568.28;5070647;28;19917;-83
2023/03/12 10:09:19;;;;;;;;;;;;;;;14.88;34.10;100563.91;5068211;28;19946;-81
2023/03/12 10:12:26;;;;;;;;;;;;;;;14.87;34.86;100562.31;5074260;28;19913;-80
2023/03/12 10:15:22;;;;;;;;;;;;;;;15.13;34.78;100557.19;5070093;28;19920;-80
2023/03/12 10:18:30;;;;;;;;;;;;;;;14.98;34.63;100557.94;5069165;28;19920;-80
2023/03/12 10:21:31;;;;;;;;;;;;;;;15.31;33.70;100560.38;5067420;28;19913;-80
2023/03/12 10:24:30;;;;;;;;;;;;;;;15.14;34.34;100556.00;5064160;28;19917;-80
2023/03/12 10:27:23;;;;;;;;;;;;;;;15.15;34.24;100552.13;5064079;28;19916;-82
2023/03/12 10:30:22;;;;;;;;;;;;;;;15.19;34.39;100558.50;5066347;28;19916;-81
2023/03/12 10:33:17;;;;;;;;;;;;;;;15.31;34.27;100566.66;5063183;28;19913;-83
2023/03/12 10:36:16;;;;;;;;;;;;;;;15.33;34.08;100563.59;5061939;28;19912;-81
2023/03/12 10:39:14;;;;;;;;;;;;;;;15.43;35.62;100567.75;5072814;28;19916;-82
2023/03/12 10:42:10;;;;;;;;;;;;;;;15.65;34.46;100576.19;5071205;28;19912;-81
2023/03/12 10:45:15;;;;;;;;;;;;;;;15.61;34.57;100580.00;5070648;28;19913;-81
2023/03/12 10:48:07;;;;;;;;;;;;;;;15.68;34.45;100574.72;5066134;28;20375;-89
2023/03/12 10:51:12;;;;;;;;;;;;;;;15.88;34.85;100568.19;5067173;28;19917;-84
2023/03/12 10:54:22;;;;;;;;;;;;;;;15.88;35.21;100568.19;5069895;28;20371;-83
2023/03/12 10:57:14;;;;;;;;;;;;;;;15.98;34.46;100575.06;5065689;28;19912;-83
2023/03/12 11:00:10;;;;;;;;;;;;;;;16.04;33.99;100577.19;5067262;28;19913;-83
2023/03/12 11:03:20;;;;;;;;;;;;;;;16.32;33.74;100573.50;5065727;28;19920;-84
2023/03/12 11:06:21;;;;;;;;;;;;;;;16.58;33.29;100581.97;5064948;28;20383;-83
2023/03/12 11:09:13;;;;;;;;;;;;;;;16.82;32.55;100583.69;5065182;28;19917;-83
2023/03/12 11:12:23;;;;;;;;;;;;;;;17.21;31.62;100596.28;5068034;28;19912;-82
2023/03/12 11:15:26;;;;;;;;;;;;;;;19.63;27.88;100593.28;5074134;28;19913;-82
2023/03/12 11:18:24;;;;;;;;;;;;;;;24.91;21.73;100601.31;5071217;28;19920;-83
2023/03/12 11:21:15;;;;;;;;;;;;;;;29.03;16.63;100601.03;5067468;28;19913;-82
2023/03/12 11:24:13;;;;;;;;;;;;;;;29.28;16.50;100601.06;5065352;28;19913;-83
2023/03/12 11:27:21;;;;;;;;;;;;;;;29.97;16.01;100611.78;5070120;28;19917;-84
2023/03/12 11:30:19;;;;;;;;;;;;;;;32.15;13.91;100618.94;5066068;28;19932;-82
2023/03/12 11:33:11;;;;;;;;;;;;;;;32.59;14.19;100607.41;5066251;28;19913;-82
2023/03/12 11:36:08;;;;;;;;;;;;;;;30.69;15.03;100611.72;5073153;28;19924;-81
2023/03/12 11:39:00;;;;;;;;;;;;;;;32.53;13.88;100604.44;5075248;28;19920;-81
2023/03/12 11:42:05;;;;;;;;;;;;;;;31.49;14.21;100606.34;5074093;28;19913;-81
2023/03/12 11:45:06;;;;;;;;;;;;;;;35.01;12.09;100611.34;5068588;28;19913;-81
2023/03/12 11:48:02;;;;;;;;;;;;;;;30.15;15.30;100609.16;5078836;28;19925;-83
2023/03/12 11:50:54;;;;;;;;;;;;;;;36.24;11.39;100614.91;5066779;28;19912;-81
2023/03/12 11:53:56;;;;;;;;;;;;;;;38.66;9.58;100631.38;5070556;28;19913;-80
2023/03/12 11:56:49;;;;;;;;;;;;;;;35.10;11.83;100616.94;5068449;28;19924;-80
2023/03/12 11:59:55;;;;;;;;;;;;;;;37.48;10.18;100623.47;5074004;28;19916;-83
2023/03/12 12:02:47;;;;;;;;;;;;;;;34.88;11.71;100616.50;5063694;28;19912;-80
2023/03/12 12:05:42;;;;;;;;;;;;;;;36.59;10.90;100619.69;5059559;28;19921;-80
2023/03/12 12:08:45;;;;;;;;;;;;;;;35.55;11.89;100619.25;5065897;28;19916;-80
2023/03/12 12:11:47;;;;;;;;;;;;;;;35.04;12.07;100607.56;5064163;28;20160;-80
2023/03/12 12:14:56;;;;;;;;;;;;;;;36.43;10.92;100607.66;5063268;28;19913;-80
2023/03/12 12:17:50;;;;;;;;;;;;;;;35.95;11.19;100595.16;5059885;28;19916;-80
2023/03/12 12:21:06;;;;;;;;;;;;;;;38.35;9.62;100595.38;5083241;28;19912;-80
2023/03/12 12:24:14;;;;;;;;;;;;;;;33.59;12.88;100590.34;5060203;28;19915;-81
2023/03/12 12:27:06;;;;;;;;;;;;;;;35.60;11.22;100586.66;5077336;28;19912;-82
2023/03/12 12:30:19;;;;;;;;;;;;;;;36.19;10.85;100587.28;5073488;28;20387;-81
2023/03/12 12:33:30;;;;;;;;;;;;;;;36.67;10.67;100589.69;5078027;28;19912;-80
2023/03/12 12:36:23;;;;;;;;;;;;;;;35.34;11.72;100585.72;5071141;28;19921;-82
2023/03/12 12:39:31;;;;;;;;;;;;;;;36.35;11.18;100581.03;5070893;28;19912;-81
2023/03/12 12:42:20;;;;;;;;;;;;;;;33.81;12.73;100579.59;5074870;28;19912;-84
2023/03/12 12:45:15;;;;;;;;;;;;;;;33.81;12.74;100567.53;5076415;28;19912;-84
2023/03/12 12:48:09;;;;;;;;;;;;;;;33.74;12.40;100573.53;5075122;28;19916;-82
2023/03/12 12:51:00;;;;;;;;;;;;;;;31.47;14.02;100565.88;5076129;28;19912;-81
2023/03/12 12:54:10;;;;;;;;;;;;;;;33.01;13.29;100573.75;5066767;28;19916;-78
2023/03/12 12:57:16;;;;;;;;;;;;;;;34.36;12.52;100570.78;5047998;28;19913;-79
2023/03/12 13:00:13;;;;;;;;;;;;;;;32.80;13.34;100541.72;5075152;28;19919;-79
2023/03/12 13:03:05;;;;;;;;;;;;;;;33.40;12.65;100569.13;5074217;28;19913;-79
2023/03/12 13:06:04;;;;;;;;;;;;;;;33.14;12.99;100579.97;5074004;28;19912;-79
2023/03/12 13:08:59;;;;;;;;;;;;;;;32.67;13.36;100578.50;5069601;28;20391;-79
2023/03/12 13:11:51;;;;;;;;;;;;;;;31.90;13.71;100570.56;5078779;28;19912;-79
2023/03/12 13:14:44;;;;;;;;;;;;;;;30.71;14.91;100560.72;5058330;28;19916;-78
2023/03/12 13:17:56;;;;;;;;;;;;;;;31.25;14.31;100566.69;5061726;28;19912;-78
2023/03/12 13:20:58;;;;;;;;;;;;;;;31.63;14.37;100565.66;5076334;28;19916;-78
2023/03/12 13:24:05;;;;;;;;;;;;;;;28.38;16.37;100555.66;5093051;28;19912;-77
2023/03/12 13:27:18;;;;;;;;;;;;;;;31.04;14.88;100559.09;5078957;28;19913;-78
2023/03/12 13:30:26;;;;;;;;;;;;;;;28.42;16.86;100561.94;5088218;28;19916;-78
2023/03/12 13:33:17;;;;;;;;;;;;;;;27.45;17.69;100570.28;5077293;28;19916;-78
2023/03/12 13:36:27;;;;;;;;;;;;;;;29.17;16.55;100577.41;5079266;28;19912;-78
2023/03/12 13:39:27;;;;;;;;;;;;;;;31.08;14.91;100582.22;5071756;28;20308;-78
2023/03/12 13:42:36;;;;;;;;;;;;;;;28.60;16.71;100579.00;5071251;28;19913;-78
2023/03/12 13:45:29;;;;;;;;;;;;;;;28.48;17.47;100582.56;5079060;28;19917;-78
2023/03/12 13:48:20;;;;;;;;;;;;;;;27.05;18.25;100578.75;5083977;28;19917;-78
2023/03/12 13:51:17;;;;;;;;;;;;;;;27.76;18.02;100576.38;5069963;28;20556;-78
2023/03/12 13:54:06;;;;;;;;;;;;;;;27.79;18.14;100581.09;5056273;28;20393;-78
2023/03/12 13:57:02;;;;;;;;;;;;;;;28.25;17.57;100579.97;5069180;28;19917;-78
2023/03/12 13:59:54;;;;;;;;;;;;;;;27.47;18.16;100582.63;5071279;28;19912;-78
2023/03/12 14:02:45;;;;;;;;;;;;;;;24.87;20.95;100572.72;5057886;28;20300;-78
2023/03/12 14:05:45;;;;;;;;;;;;;;;24.45;21.31;100579.53;5067173;28;19916;-77
2023/03/12 14:08:54;;;;;;;;;;;;;;;22.12;24.65;100576.75;5064861;28;19938;-78
2023/03/12 14:11:46;;;;;;;;;;;;;;;23.03;22.63;100569.41;5061581;28;19913;-78
2023/03/12 14:14:48;;;;;;;;;;;;;;;22.62;23.65;100571.91;5069890;28;19924;-78
2023/03/12 14:17:41;;;;;;;;;;;;;;;20.69;26.45;100557.41;5076101;28;19912;-78
2023/03/12 14:20:38;;;;;;;;;;;;;;;20.11;28.08;100560.97;5066330;28;19913;-77
2023/03/12 14:23:33;;;;;;;;;;;;;;;19.51;28.54;100560.44;5052756;28;20450;-78
2023/03/12 14:26:27;;;;;;;;;;;;;;;19.75;28.56;100559.88;5065248;28;19912;-77
2023/03/12 14:29:25;;;;;;;;;;;;;;;19.87;28.90;100564.31;5063600;28;20322;-78
2023/03/12 14:32:26;;;;;;;;;;;;;;;19.75;28.43;100564.63;5057247;28;19912;-78
2023/03/12 14:35:32;;;;;;;;;;;;;;;18.62;30.57;100564.88;5055384;28;19916;-78
2023/03/12 14:38:24;;;;;;;;;;;;;;;19.66;29.26;100564.16;5060073;28;20287;-78
2023/03/12 14:41:17;;;;;;;;;;;;;;;18.83;30.10;100550.59;5055329;28;19921;-77
2023/03/12 14:44:18;;;;;;;;;;;;;;;19.40;29.48;100563.03;5056450;28;19912;-77
2023/03/12 14:47:12;;;;;;;;;;;;;;;20.08;29.00;100558.97;5067415;28;19912;-78